Terminal Aerodrome Forecast
Issued by NWS

Home | Current Version | Previous Version | Text Only | Print | Product List | Glossary On
Versions: 1 2 3 4 5 6 7 8 9 10 11 12 13 14 15 16 17 18 19 20 21 22 23 24 25 26 27 28 29 30 31
016
FTUS46 KMTR 201128
TAFSFO
TAF
KSFO 201128Z 2012/2118 28015KT P6SM FEW008 SCT010
     FM201600 27012KT P6SM FEW015
     FM202000 28018G26KT P6SM SKC
     FM210400 28014KT P6SM FEW010
     FM210600 28014KT P6SM SCT010
     FM210900 28010KT P6SM BKN010
     FM211600 27008KT P6SM SCT010=

USA.gov is the U.S. government's official web portal to all federal, state and local government web resources and services.